Time;durP1;ratioP1;P1;durP2;ratioP2;P2;SDS_P1;SDS_P2;PMS_P1;PMS_P2;Temp;Humidity;BMP_temperature;BMP_pressure;BME280_temperature;BME280_humidity;BME280_pressure;Samples;Min_cycle;Max_cycle;Signal;HPM_P1;HPM_P2
2021/03/05 00:00:24;;;;;;;35.07;19.13;;;4.50;99.90;;;;;;5032430;28;20237;-75
2021/03/05 00:02:52;;;;;;;37.17;18.57;;;4.60;99.90;;;;;;5032457;28;20209;-75
2021/03/05 00:05:18;;;;;;;38.03;18.73;;;4.60;99.90;;;;;;5032696;28;20203;-75
2021/03/05 00:07:45;;;;;;;37.57;18.17;;;4.60;99.90;;;;;;5048499;28;20241;-75
2021/03/05 00:10:14;;;;;;;35.67;18.13;;;4.70;99.90;;;;;;5052565;28;20748;-74
2021/03/05 00:12:40;;;;;;;33.97;18.10;;;4.80;99.90;;;;;;5052187;28;20253;-75
2021/03/05 00:15:10;;;;;;;35.30;18.10;;;4.90;99.90;;;;;;5052314;28;20238;-75
2021/03/05 00:17:37;;;;;;;35.63;17.07;;;5.00;99.90;;;;;;5052117;28;20624;-75
2021/03/05 00:20:09;;;;;;;31.70;17.40;;;5.10;99.90;;;;;;5052051;28;20277;-74
2021/03/05 00:22:35;;;;;;;34.73;17.77;;;5.30;99.90;;;;;;5052074;28;20233;-75
2021/03/05 00:25:02;;;;;;;31.87;17.40;;;5.40;99.90;;;;;;5052191;28;20241;-75
2021/03/05 00:27:28;;;;;;;31.97;17.17;;;5.50;99.90;;;;;;5051841;28;20702;-75
2021/03/05 00:29:55;;;;;;;31.20;16.93;;;5.60;99.90;;;;;;5052059;28;20730;-74
2021/03/05 00:32:21;;;;;;;30.30;16.07;;;5.70;99.90;;;;;;5051695;28;20259;-75
2021/03/05 00:34:49;;;;;;;27.90;16.23;;;5.70;99.90;;;;;;5035817;28;20718;-75
2021/03/05 00:37:15;;;;;;;31.10;16.80;;;5.70;99.90;;;;;;5031852;28;20593;-75
2021/03/05 00:39:42;;;;;;;27.97;15.30;;;5.80;99.90;;;;;;5014519;28;20205;-75
2021/03/05 00:42:08;;;;;;;26.17;16.03;;;5.80;99.90;;;;;;5032004;28;20204;-75
2021/03/05 00:44:34;;;;;;;25.63;15.10;;;5.90;99.90;;;;;;5031975;28;20285;-75
2021/03/05 00:47:01;;;;;;;22.27;14.40;;;6.00;99.90;;;;;;5031949;28;20228;-74
2021/03/05 00:49:27;;;;;;;26.00;14.67;;;6.10;99.90;;;;;;5032013;28;20693;-75
2021/03/05 00:51:55;;;;;;;24.17;14.27;;;6.10;99.90;;;;;;5031811;28;20708;-75
2021/03/05 00:54:22;;;;;;;24.57;14.13;;;6.20;99.90;;;;;;5031906;28;20677;-75
2021/03/05 00:56:48;;;;;;;25.47;14.10;;;6.20;99.90;;;;;;5035198;28;20227;-75
2021/03/05 00:59:14;;;;;;;24.97;13.93;;;6.20;99.90;;;;;;5036093;28;20231;-74
2021/03/05 01:01:41;;;;;;;25.30;14.23;;;6.20;99.90;;;;;;5035623;28;20610;-75
2021/03/05 01:04:07;;;;;;;22.03;13.63;;;6.20;99.90;;;;;;5036266;28;20291;-73
2021/03/05 01:06:34;;;;;;;21.67;13.73;;;6.30;99.90;;;;;;5035597;28;20624;-75
2021/03/05 01:09:01;;;;;;;20.07;13.23;;;6.30;99.90;;;;;;5036041;28;20287;-75
2021/03/05 01:11:27;;;;;;;22.63;13.67;;;6.30;99.90;;;;;;5035806;28;20546;-75
2021/03/05 01:13:54;;;;;;;20.97;12.83;;;6.30;99.90;;;;;;5036060;28;20315;-75
2021/03/05 01:16:20;;;;;;;20.50;13.10;;;6.30;99.90;;;;;;5034823;28;20269;-75
2021/03/05 01:18:46;;;;;;;23.73;13.23;;;6.30;99.90;;;;;;5035041;28;20743;-75
2021/03/05 01:21:13;;;;;;;21.53;12.43;;;6.30;99.90;;;;;;5034954;28;20688;-76
2021/03/05 01:23:40;;;;;;;19.40;12.53;;;6.30;99.90;;;;;;5035737;28;20288;-75
2021/03/05 01:26:09;;;;;;;21.40;12.57;;;6.30;99.90;;;;;;5035482;28;20295;-75
2021/03/05 01:28:36;;;;;;;19.77;12.63;;;6.30;99.90;;;;;;5035373;28;20201;-75
2021/03/05 01:31:03;;;;;;;19.00;12.30;;;6.30;99.90;;;;;;5035273;28;20229;-75
2021/03/05 01:33:30;;;;;;;20.37;12.53;;;6.30;99.90;;;;;;5035509;28;20577;-73
2021/03/05 01:35:56;;;;;;;19.67;12.00;;;6.30;99.90;;;;;;5050749;28;20644;-75
2021/03/05 01:38:22;;;;;;;20.23;12.30;;;6.20;99.90;;;;;;5055166;28;20702;-75
2021/03/05 01:40:49;;;;;;;21.37;12.47;;;6.20;99.90;;;;;;5055118;28;20729;-75
2021/03/05 01:43:18;;;;;;;19.93;12.60;;;6.20;99.90;;;;;;5055047;28;20241;-75
2021/03/05 01:45:45;;;;;;;21.67;12.13;;;6.20;99.90;;;;;;5055067;28;20670;-74
2021/03/05 01:48:14;;;;;;;21.23;12.70;;;6.20;99.90;;;;;;5054982;28;20233;-75
2021/03/05 01:50:48;;;;;;;19.77;12.33;;;6.10;99.90;;;;;;5055048;28;20209;-75
2021/03/05 01:53:15;;;;;;;19.70;12.03;;;6.20;99.90;;;;;;5055153;28;20238;-74
2021/03/05 01:55:42;;;;;;;21.23;13.20;;;6.10;99.90;;;;;;5055340;28;20239;-75
2021/03/05 01:58:08;;;;;;;19.90;11.73;;;6.10;99.90;;;;;;5054444;28;20255;-74
2021/03/05 02:00:40;;;;;;;21.67;12.20;;;6.10;99.90;;;;;;5054667;28;20239;-75
2021/03/05 02:03:07;;;;;;;19.40;12.73;;;6.10;99.90;;;;;;5054551;28;20640;-75
2021/03/05 02:05:34;;;;;;;20.93;12.47;;;6.10;99.90;;;;;;5054561;28;20204;-75
2021/03/05 02:08:01;;;;;;;20.00;12.67;;;6.00;99.90;;;;;;5054294;28;20231;-74
2021/03/05 02:10:27;;;;;;;18.60;12.93;;;6.00;99.90;;;;;;5054415;28;20235;-73
2021/03/05 02:12:54;;;;;;;17.67;12.33;;;6.10;99.90;;;;;;5054339;28;20234;-75
2021/03/05 02:15:21;;;;;;;19.57;12.33;;;6.00;99.90;;;;;;5054503;28;20627;-75
2021/03/05 02:17:55;;;;;;;22.37;12.97;;;6.10;99.90;;;;;;5054570;28;20263;-75
2021/03/05 02:20:30;;;;;;;17.43;12.17;;;6.00;99.90;;;;;;5054487;28;20263;-75
2021/03/05 02:23:25;;;;;;;19.43;11.87;;;6.00;99.90;;;;;;5054474;28;20213;-75
2021/03/05 02:26:10;;;;;;;19.03;11.80;;;5.90;99.90;;;;;;5054149;28;20704;-75
2021/03/05 02:29:20;;;;;;;16.00;10.57;;;6.00;99.90;;;;;;5036449;28;20285;-75
2021/03/05 02:31:49;;;;;;;16.50;10.67;;;5.90;99.90;;;;;;5054092;28;20736;-74
2021/03/05 02:34:20;;;;;;;15.87;10.37;;;5.90;99.90;;;;;;5054171;28;20690;-75
2021/03/05 02:36:51;;;;;;;12.97;9.33;;;5.90;99.90;;;;;;5041149;28;20311;-73
2021/03/05 02:39:22;;;;;;;14.40;8.90;;;5.90;99.90;;;;;;5017170;28;20328;-75
2021/03/05 02:41:53;;;;;;;13.77;8.53;;;5.80;99.90;;;;;;5033964;28;20235;-75
2021/03/05 02:44:23;;;;;;;13.43;7.70;;;5.80;99.90;;;;;;5034138;28;20621;-75
2021/03/05 02:46:52;;;;;;;10.33;6.80;;;5.80;99.90;;;;;;5033985;28;20231;-75
2021/03/05 02:49:21;;;;;;;9.87;6.57;;;5.70;99.90;;;;;;5033378;28;20247;-75
2021/03/05 02:51:50;;;;;;;9.17;6.70;;;5.80;99.90;;;;;;5039964;28;20290;-74
2021/03/05 02:54:19;;;;;;;10.23;7.23;;;5.80;99.90;;;;;;5036444;28;20294;-74
2021/03/05 02:56:47;;;;;;;11.17;7.27;;;5.70;99.90;;;;;;5033569;28;20269;-74
2021/03/05 02:59:16;;;;;;;10.77;7.73;;;5.50;99.90;;;;;;5034052;28;20242;-74
2021/03/05 03:01:47;;;;;;;10.17;7.80;;;5.50;99.90;;;;;;5033641;28;20200;-74
2021/03/05 03:04:15;;;;;;;9.80;6.47;;;5.30;99.90;;;;;;5015947;28;20241;-75
2021/03/05 03:06:44;;;;;;;9.80;6.90;;;5.30;99.90;;;;;;5033350;28;20244;-73
2021/03/05 03:09:13;;;;;;;8.77;6.23;;;5.30;99.90;;;;;;5025287;28;20211;-74
2021/03/05 03:11:42;;;;;;;8.93;6.50;;;5.20;99.90;;;;;;5053125;28;20250;-75
2021/03/05 03:14:10;;;;;;;9.73;6.83;;;5.20;99.90;;;;;;5053266;28;20684;-74
2021/03/05 03:16:38;;;;;;;8.60;6.40;;;5.20;99.90;;;;;;5053091;28;20732;-74
2021/03/05 03:19:10;;;;;;;9.20;6.30;;;5.20;99.90;;;;;;5052269;28;20300;-75
2021/03/05 03:21:38;;;;;;;9.27;6.43;;;5.20;99.90;;;;;;5035815;28;20230;-74
2021/03/05 03:24:06;;;;;;;8.97;6.63;;;5.30;99.90;;;;;;5053355;28;20236;-75
2021/03/05 03:26:35;;;;;;;9.77;6.73;;;5.30;99.90;;;;;;5053063;28;20229;-74
2021/03/05 03:29:02;;;;;;;11.17;7.33;;;5.40;99.90;;;;;;5053367;28;20244;-74
2021/03/05 03:31:28;;;;;;;10.47;7.43;;;5.50;99.90;;;;;;5053380;28;20245;-75
2021/03/05 03:33:55;;;;;;;10.67;7.93;;;5.50;99.90;;;;;;5052832;28;20242;-74
2021/03/05 03:36:22;;;;;;;13.07;7.80;;;5.50;99.90;;;;;;5053125;28;20247;-75
2021/03/05 03:38:50;;;;;;;10.63;7.80;;;5.50;99.90;;;;;;5052727;28;20268;-75
2021/03/05 03:41:16;;;;;;;13.33;8.10;;;5.50;99.90;;;;;;5052580;28;20683;-76
2021/03/05 03:43:43;;;;;;;13.03;7.97;;;5.50;99.90;;;;;;5052594;28;20242;-73
2021/03/05 03:46:10;;;;;;;12.43;8.07;;;5.50;99.90;;;;;;5052960;28;20246;-73
2021/03/05 03:48:43;;;;;;;12.00;7.70;;;5.50;99.90;;;;;;5052643;28;20233;-75
2021/03/05 03:51:12;;;;;;;10.23;7.27;;;5.40;99.90;;;;;;5052784;28;20207;-73
2021/03/05 03:53:39;;;;;;;9.80;7.40;;;5.40;99.90;;;;;;5052486;28;20248;-73
2021/03/05 03:56:10;;;;;;;10.40;7.53;;;5.50;99.90;;;;;;5052446;28;20288;-73
2021/03/05 03:58:39;;;;;;;10.17;7.40;;;5.50;99.90;;;;;;5052210;28;20268;-74
2021/03/05 04:01:09;;;;;;;10.60;6.83;;;5.60;99.90;;;;;;5052619;28;20631;-75
2021/03/05 04:03:38;;;;;;;12.67;6.97;;;5.60;99.90;;;;;;5052537;28;20196;-75
2021/03/05 04:06:07;;;;;;;9.57;6.60;;;5.60;99.90;;;;;;5052218;28;20563;-75
2021/03/05 04:08:36;;;;;;;9.77;6.70;;;5.60;99.90;;;;;;5051929;28;20205;-74
2021/03/05 04:11:04;;;;;;;11.00;7.60;;;5.60;99.90;;;;;;5052262;28;20234;-74
2021/03/05 04:13:32;;;;;;;10.77;6.80;;;5.60;99.90;;;;;;5052459;28;20248;-75
2021/03/05 04:15:59;;;;;;;10.30;6.73;;;5.60;99.90;;;;;;5052525;28;20233;-75
2021/03/05 04:18:31;;;;;;;9.37;6.47;;;5.60;99.90;;;;;;5051806;28;20260;-74
2021/03/05 04:21:01;;;;;;;10.70;7.20;;;5.70;99.90;;;;;;5051831;28;20209;-75
2021/03/05 04:23:27;;;;;;;9.43;6.77;;;5.60;99.90;;;;;;5051729;28;20685;-74
2021/03/05 04:25:54;;;;;;;10.03;6.83;;;5.60;99.90;;;;;;5052023;28;20294;-74
2021/03/05 04:28:20;;;;;;;9.63;6.23;;;5.60;99.90;;;;;;5052319;28;20290;-75
2021/03/05 04:30:48;;;;;;;10.40;6.10;;;5.60;99.90;;;;;;5052008;28;20198;-74
2021/03/05 04:33:14;;;;;;;11.43;6.40;;;5.70;99.90;;;;;;5051936;28;20257;-75
2021/03/05 04:35:40;;;;;;;11.47;6.67;;;5.70;99.90;;;;;;5052139;28;20230;-74
2021/03/05 04:38:07;;;;;;;10.53;6.87;;;5.70;99.90;;;;;;5051977;28;20426;-75
2021/03/05 04:40:33;;;;;;;9.70;6.40;;;5.70;99.90;;;;;;5052025;28;20286;-74
2021/03/05 04:43:00;;;;;;;10.60;7.03;;;5.70;99.90;;;;;;5052106;28;20241;-74
2021/03/05 04:45:26;;;;;;;11.37;6.87;;;5.70;99.90;;;;;;5051981;28;20238;-75
2021/03/05 04:47:53;;;;;;;10.23;7.03;;;5.60;99.90;;;;;;5051669;28;20236;-75
2021/03/05 04:50:20;;;;;;;11.27;7.30;;;5.60;99.90;;;;;;5051843;28;20257;-74
2021/03/05 04:52:46;;;;;;;10.97;7.33;;;5.60;99.90;;;;;;5047185;28;20215;-74
2021/03/05 04:55:13;;;;;;;10.90;7.27;;;5.60;99.90;;;;;;5031762;28;20235;-74
2021/03/05 04:57:39;;;;;;;10.27;7.07;;;5.60;99.90;;;;;;5032143;28;20314;-75
2021/03/05 05:00:07;;;;;;;10.73;7.17;;;5.60;99.90;;;;;;5031981;28;20231;-74
2021/03/05 05:02:34;;;;;;;13.10;8.03;;;5.60;99.90;;;;;;5031737;28;20239;-75
2021/03/05 05:05:02;;;;;;;11.90;7.67;;;5.70;99.90;;;;;;5031701;28;20246;-74
2021/03/05 05:07:29;;;;;;;11.97;7.40;;;5.60;99.90;;;;;;5031737;28;20220;-74
2021/03/05 05:09:55;;;;;;;13.20;7.33;;;5.60;99.90;;;;;;5031959;28;20292;-75
2021/03/05 05:12:21;;;;;;;12.57;7.77;;;5.60;99.90;;;;;;5032062;28;20234;-75
2021/03/05 05:14:48;;;;;;;10.57;7.17;;;5.60;99.90;;;;;;5031891;28;20238;-75
2021/03/05 05:17:15;;;;;;;12.20;7.37;;;5.60;99.90;;;;;;5031697;28;20285;-75
2021/03/05 05:19:42;;;;;;;11.83;7.70;;;5.60;99.90;;;;;;5031524;28;20267;-74
2021/03/05 05:22:10;;;;;;;11.50;6.87;;;5.60;99.90;;;;;;5031364;28;20243;-75
2021/03/05 05:24:37;;;;;;;8.73;6.10;;;5.60;99.90;;;;;;5031639;28;20200;-74
2021/03/05 05:27:05;;;;;;;10.57;6.80;;;5.60;99.90;;;;;;5031514;28;20282;-74
2021/03/05 05:29:31;;;;;;;9.13;6.00;;;5.60;99.90;;;;;;5031287;28;20200;-74
2021/03/05 05:31:57;;;;;;;8.90;5.50;;;5.60;99.90;;;;;;5031800;28;20235;-74
2021/03/05 05:34:24;;;;;;;10.63;6.07;;;5.70;99.90;;;;;;5031805;28;20206;-75
2021/03/05 05:36:50;;;;;;;7.73;5.07;;;5.70;99.90;;;;;;5031295;28;20749;-74
2021/03/05 05:39:17;;;;;;;8.10;5.30;;;5.70;99.90;;;;;;5031877;28;20245;-74
2021/03/05 05:41:44;;;;;;;8.00;5.47;;;5.70;99.90;;;;;;5033107;28;20640;-74
2021/03/05 05:44:10;;;;;;;7.40;4.93;;;5.70;99.90;;;;;;5035388;28;20659;-75
2021/03/05 05:46:40;;;;;;;6.97;5.07;;;5.70;99.90;;;;;;5035310;28;20273;-75
2021/03/05 05:49:08;;;;;;;8.53;5.20;;;5.60;99.90;;;;;;5035182;28;20204;-75
2021/03/05 05:51:35;;;;;;;8.50;5.50;;;5.60;99.90;;;;;;5034548;28;20290;-75
2021/03/05 05:54:06;;;;;;;9.10;5.50;;;5.60;99.90;;;;;;5034774;28;20251;-74
2021/03/05 05:56:33;;;;;;;9.07;5.40;;;5.60;99.90;;;;;;5034862;28;20240;-74
2021/03/05 05:59:01;;;;;;;7.73;5.20;;;5.60;99.90;;;;;;5034938;28;20235;-74
2021/03/05 06:01:27;;;;;;;9.40;5.70;;;5.60;99.90;;;;;;5034960;28;20236;-75
2021/03/05 06:03:53;;;;;;;10.57;6.13;;;5.60;99.90;;;;;;5034701;28;20768;-75
2021/03/05 06:06:20;;;;;;;11.13;6.93;;;5.50;99.90;;;;;;5034716;28;20246;-75
2021/03/05 06:08:46;;;;;;;13.30;6.70;;;5.50;99.90;;;;;;5034970;28;20251;-75
2021/03/05 06:11:13;;;;;;;10.13;6.60;;;5.60;99.90;;;;;;5034696;28;20236;-75
2021/03/05 06:13:40;;;;;;;10.30;7.30;;;5.50;99.90;;;;;;5034890;28;20232;-74
2021/03/05 06:16:15;;;;;;;11.47;7.00;;;5.50;99.90;;;;;;5034488;28;20306;-75
2021/03/05 06:18:42;;;;;;;8.70;5.80;;;5.50;99.90;;;;;;5034264;28;20279;-75
2021/03/05 06:21:10;;;;;;;9.07;5.93;;;5.50;99.90;;;;;;5034134;28;20212;-75
2021/03/05 06:23:55;;;;;;;8.77;5.37;;;5.60;99.90;;;;;;5034382;28;20201;-74
2021/03/05 06:26:21;;;;;;;7.90;5.20;;;5.60;99.90;;;;;;5034210;28;20678;-75
2021/03/05 06:29:02;;;;;;;7.33;4.90;;;5.60;99.90;;;;;;5034147;28;20234;-74
2021/03/05 06:31:29;;;;;;;7.13;4.50;;;5.60;99.90;;;;;;5016777;28;20730;-74
2021/03/05 06:33:58;;;;;;;6.97;4.87;;;5.60;99.90;;;;;;5034234;28;20286;-75
2021/03/05 06:36:24;;;;;;;7.23;5.07;;;5.60;99.90;;;;;;5033989;28;20295;-74
2021/03/05 06:38:51;;;;;;;11.10;5.57;;;5.70;99.90;;;;;;5034310;28;20317;-75
2021/03/05 06:41:20;;;;;;;9.97;6.30;;;5.70;99.90;;;;;;5034121;28;20208;-75
2021/03/05 06:43:48;;;;;;;11.40;6.63;;;5.70;99.90;;;;;;5034208;28;20214;-74
2021/03/05 06:46:35;;;;;;;10.97;6.70;;;5.70;99.90;;;;;;5034153;28;20203;-75
2021/03/05 06:49:04;;;;;;;10.43;6.30;;;5.70;99.90;;;;;;5033976;28;20621;-74
2021/03/05 06:51:31;;;;;;;9.37;6.40;;;5.60;99.90;;;;;;5033898;28;20653;-75
2021/03/05 06:54:09;;;;;;;10.30;6.17;;;5.60;99.90;;;;;;5047946;28;20239;-75
2021/03/05 06:56:37;;;;;;;9.07;6.43;;;5.60;99.90;;;;;;5053867;28;20217;-75
2021/03/05 06:59:06;;;;;;;10.07;6.60;;;5.60;99.90;;;;;;5053824;28;20260;-74
2021/03/05 07:01:44;;;;;;;13.73;6.83;;;5.60;99.90;;;;;;5053632;28;20623;-75
2021/03/05 07:04:12;;;;;;;11.83;7.20;;;5.50;99.90;;;;;;5053255;28;20244;-74
2021/03/05 07:06:39;;;;;;;12.87;7.80;;;5.50;99.90;;;;;;5053806;28;20278;-75
2021/03/05 07:09:07;;;;;;;11.33;7.60;;;5.60;99.90;;;;;;5053408;28;20237;-75
2021/03/05 07:11:39;;;;;;;14.43;8.53;;;5.50;99.90;;;;;;5053739;28;20210;-75
2021/03/05 07:14:08;;;;;;;15.50;8.43;;;5.50;99.90;;;;;;5035386;28;20202;-75
2021/03/05 07:16:44;;;;;;;11.70;7.83;;;5.60;99.90;;;;;;5053461;28;20214;-75
2021/03/05 07:19:12;;;;;;;12.63;7.93;;;5.60;99.90;;;;;;5053145;28;20728;-75
2021/03/05 07:21:41;;;;;;;12.77;8.10;;;5.60;99.90;;;;;;5053503;28;20234;-75
2021/03/05 07:24:10;;;;;;;14.83;8.67;;;5.60;99.90;;;;;;5052588;28;20243;-74
2021/03/05 07:26:43;;;;;;;13.17;8.83;;;5.60;99.90;;;;;;5052692;28;20235;-75
2021/03/05 07:29:17;;;;;;;12.20;8.43;;;5.60;99.90;;;;;;5052726;28;20204;-75
2021/03/05 07:31:47;;;;;;;12.57;9.10;;;5.60;99.90;;;;;;5052875;28;20603;-75
2021/03/05 07:34:18;;;;;;;12.83;8.90;;;5.60;99.90;;;;;;5053272;28;20234;-74
2021/03/05 07:36:50;;;;;;;13.67;9.20;;;5.60;99.90;;;;;;5052998;28;20322;-74
2021/03/05 07:39:24;;;;;;;14.27;9.30;;;5.60;99.90;;;;;;5052957;28;20322;-74
2021/03/05 07:41:53;;;;;;;15.47;8.57;;;5.60;99.90;;;;;;5052958;28;20272;-74
2021/03/05 07:44:21;;;;;;;13.00;8.60;;;5.50;99.90;;;;;;5052757;28;20243;-74
2021/03/05 07:46:48;;;;;;;12.43;8.13;;;5.50;99.90;;;;;;5052840;28;20237;-74
2021/03/05 07:49:16;;;;;;;12.03;7.93;;;5.60;99.90;;;;;;5052538;28;20238;-74
2021/03/05 07:51:44;;;;;;;12.67;7.63;;;5.60;99.90;;;;;;5052758;28;20718;-74
2021/03/05 07:54:11;;;;;;;11.07;7.27;;;5.60;99.90;;;;;;5052300;28;20302;-74
2021/03/05 07:56:39;;;;;;;8.73;5.70;;;5.70;99.90;;;;;;5052761;28;20860;-75
2021/03/05 07:59:06;;;;;;;10.97;5.97;;;5.70;99.90;;;;;;5052739;28;20265;-74
2021/03/05 08:02:04;;;;;;;9.93;5.93;;;5.70;99.90;;;;;;5052492;28;20241;-75
2021/03/05 08:04:58;;;;;;;7.67;5.63;;;5.70;99.90;;;;;;5051998;28;20203;-74
2021/03/05 08:07:25;;;;;;;8.07;5.03;;;5.70;99.90;;;;;;5052462;28;20199;-75
2021/03/05 08:09:52;;;;;;;6.93;4.43;;;5.70;99.90;;;;;;5034847;28;20241;-75
2021/03/05 08:12:42;;;;;;;6.77;2.93;;;5.70;99.90;;;;;;5052283;28;20238;-74
2021/03/05 08:15:25;;;;;;;5.80;3.10;;;5.70;99.90;;;;;;5051528;28;20742;-75
2021/03/05 08:17:54;;;;;;;4.40;2.70;;;5.70;99.90;;;;;;5052024;28;20237;-75
2021/03/05 08:20:57;;;;;;;3.87;2.47;;;5.70;99.90;;;;;;5052440;28;20203;-74
2021/03/05 08:23:24;;;;;;;6.47;2.47;;;5.70;99.90;;;;;;5052133;28;20298;-74
2021/03/05 08:25:55;;;;;;;6.27;2.67;;;5.70;99.90;;;;;;5052359;28;20640;-75
2021/03/05 08:28:46;;;;;;;10.97;2.60;;;5.70;99.90;;;;;;5051914;28;20297;-75
2021/03/05 08:31:35;;;;;;;7.00;2.40;;;5.70;99.90;;;;;;5051957;28;20200;-74
2021/03/05 08:34:46;;;;;;;7.10;2.60;;;5.70;99.90;;;;;;5052247;28;20662;-74
2021/03/05 08:37:26;;;;;;;5.77;2.90;;;5.70;99.90;;;;;;5029548;28;20310;-75
2021/03/05 08:39:53;;;;;;;8.37;3.00;;;5.70;99.90;;;;;;5029853;28;20815;-75
2021/03/05 08:42:30;;;;;;;4.17;2.60;;;5.70;99.90;;;;;;5029385;28;20214;-74
2021/03/05 08:45:15;;;;;;;7.70;2.97;;;5.80;99.90;;;;;;5029625;28;20270;-74
2021/03/05 08:47:43;;;;;;;6.43;2.90;;;5.80;99.90;;;;;;5029677;28;20250;-74
2021/03/05 08:50:13;;;;;;;5.87;2.70;;;5.80;99.90;;;;;;5029593;28;20246;-74
2021/03/05 08:52:40;;;;;;;5.67;2.43;;;5.90;99.90;;;;;;5026219;28;20317;-74
2021/03/05 08:55:08;;;;;;;4.53;3.20;;;6.00;99.90;;;;;;5009554;28;20264;-75
2021/03/05 08:57:39;;;;;;;6.83;2.70;;;5.90;99.90;;;;;;5009227;28;20316;-75
2021/03/05 09:00:09;;;;;;;5.80;2.50;;;6.00;99.90;;;;;;5009362;28;20294;-75
2021/03/05 09:02:36;;;;;;;4.90;2.73;;;6.00;99.90;;;;;;5009992;28;20653;-74
2021/03/05 09:05:04;;;;;;;6.13;2.77;;;6.00;99.90;;;;;;5009656;28;20241;-75
2021/03/05 09:07:31;;;;;;;6.90;3.07;;;6.00;99.90;;;;;;5017695;28;20236;-74
2021/03/05 09:09:58;;;;;;;6.30;3.07;;;6.00;99.90;;;;;;5031918;28;20245;-74
2021/03/05 09:12:25;;;;;;;4.57;3.27;;;6.10;99.90;;;;;;5031802;28;20628;-75
2021/03/05 09:15:01;;;;;;;7.03;3.23;;;6.20;99.90;;;;;;5031728;28;20204;-75
2021/03/05 09:17:28;;;;;;;5.93;3.37;;;6.20;99.90;;;;;;5034160;28;20236;-75
2021/03/05 09:19:54;;;;;;;5.93;3.40;;;6.30;99.90;;;;;;5034937;28;20271;-75
2021/03/05 09:22:22;;;;;;;7.80;4.70;;;6.20;99.90;;;;;;5035082;28;20287;-75
2021/03/05 09:24:55;;;;;;;8.47;4.77;;;6.00;99.90;;;;;;5017860;28;20241;-75
2021/03/05 09:27:24;;;;;;;9.73;5.30;;;6.10;99.90;;;;;;5035406;28;20234;-75
2021/03/05 09:29:51;;;;;;;9.97;5.23;;;6.10;99.90;;;;;;5035699;28;20236;-74
2021/03/05 09:32:18;;;;;;;9.87;5.90;;;6.00;99.90;;;;;;5035189;28;20672;-75
2021/03/05 09:34:49;;;;;;;9.77;5.70;;;6.10;99.90;;;;;;5035472;28;20246;-75
2021/03/05 09:37:17;;;;;;;8.10;5.10;;;6.10;99.90;;;;;;5035103;28;20614;-74
2021/03/05 09:39:44;;;;;;;9.97;5.40;;;5.90;99.90;;;;;;5035276;28;20239;-74
2021/03/05 09:42:12;;;;;;;11.30;5.73;;;5.90;99.90;;;;;;5035265;28;20299;-74
2021/03/05 09:44:43;;;;;;;10.33;5.63;;;6.00;99.90;;;;;;5035492;28;20287;-74
2021/03/05 09:47:10;;;;;;;8.10;5.37;;;5.80;99.90;;;;;;5035343;28;20232;-75
2021/03/05 09:49:36;;;;;;;8.00;5.27;;;5.90;99.90;;;;;;5034955;28;20211;-75
2021/03/05 09:52:04;;;;;;;9.00;5.30;;;5.80;99.90;;;;;;5035220;28;20251;-75
2021/03/05 09:54:38;;;;;;;6.70;4.47;;;5.90;99.90;;;;;;5053351;28;20247;-75
2021/03/05 09:57:05;;;;;;;6.20;4.00;;;6.00;99.90;;;;;;5054499;28;20235;-74
2021/03/05 09:59:43;;;;;;;8.73;4.57;;;5.90;99.90;;;;;;5054915;28;20246;-75
2021/03/05 10:02:10;;;;;;;8.00;4.27;;;6.00;99.90;;;;;;5055206;28;20204;-75
2021/03/05 10:04:43;;;;;;;9.77;4.10;;;6.00;99.90;;;;;;5054877;28;20208;-74
2021/03/05 10:07:10;;;;;;;7.97;4.60;;;6.00;99.90;;;;;;5054746;28;20235;-75
2021/03/05 10:09:36;;;;;;;7.83;4.30;;;6.20;99.90;;;;;;5054623;28;20231;-75
2021/03/05 10:12:04;;;;;;;7.37;3.83;;;6.30;99.90;;;;;;5054468;28;20255;-75
2021/03/05 10:14:33;;;;;;;6.33;3.80;;;6.30;99.90;;;;;;5054575;28;20860;-75
2021/03/05 10:17:10;;;;;;;6.83;3.70;;;6.50;99.90;;;;;;5054458;28;20606;-75
2021/03/05 10:19:38;;;;;;;6.53;2.77;;;6.70;99.90;;;;;;5036582;28;20268;-75
2021/03/05 10:22:06;;;;;;;5.47;2.63;;;7.50;99.90;;;;;;5054464;28;20202;-75
2021/03/05 10:24:32;;;;;;;5.93;2.70;;;7.20;99.90;;;;;;5054254;28;20207;-75
2021/03/05 10:27:14;;;;;;;5.30;2.73;;;7.50;99.90;;;;;;5054146;28;20232;-75
2021/03/05 10:29:43;;;;;;;9.40;3.40;;;7.30;99.90;;;;;;5053735;28;20201;-75
2021/03/05 10:32:18;;;;;;;8.87;3.40;;;7.60;99.90;;;;;;5054283;28;20621;-75
2021/03/05 10:34:45;;;;;;;5.17;2.50;;;7.50;99.90;;;;;;5054165;28;20260;-75
2021/03/05 10:37:13;;;;;;;7.50;2.80;;;7.60;99.90;;;;;;5054357;28;20236;-75
2021/03/05 10:39:40;;;;;;;5.80;2.80;;;7.50;99.90;;;;;;5054050;28;20245;-75
2021/03/05 10:42:10;;;;;;;5.10;2.43;;;7.40;99.90;;;;;;5053637;28;20243;-75
2021/03/05 10:44:37;;;;;;;5.83;3.00;;;7.30;99.90;;;;;;5053964;28;20283;-75
2021/03/05 10:47:05;;;;;;;5.70;2.83;;;7.60;99.90;;;;;;5054037;28;20341;-75
2021/03/05 10:49:32;;;;;;;6.63;2.97;;;7.40;99.90;;;;;;5053704;28;20289;-75
2021/03/05 10:51:59;;;;;;;6.57;3.17;;;7.30;99.90;;;;;;5054140;28;20669;-75
2021/03/05 10:54:27;;;;;;;5.63;3.23;;;7.20;99.90;;;;;;5053053;28;20214;-75
2021/03/05 10:56:54;;;;;;;7.47;3.77;;;7.20;99.90;;;;;;5054054;28;20206;-75
2021/03/05 10:59:21;;;;;;;6.90;3.07;;;7.20;99.90;;;;;;5036058;28;20233;-75
2021/03/05 11:01:49;;;;;;;8.27;3.10;;;7.10;99.90;;;;;;5053822;28;20288;-75
2021/03/05 11:04:16;;;;;;;6.63;3.10;;;7.10;99.90;;;;;;5053602;28;20214;-75
2021/03/05 11:06:43;;;;;;;5.80;3.40;;;7.10;99.90;;;;;;5053880;28;20230;-75
2021/03/05 11:09:10;;;;;;;6.03;3.30;;;7.20;99.90;;;;;;5053226;28;20286;-75
2021/03/05 11:11:36;;;;;;;4.83;3.00;;;7.70;99.90;;;;;;5053334;28;20216;-75
2021/03/05 11:14:03;;;;;;;5.77;3.03;;;8.30;99.90;;;;;;5053487;28;20197;-76
2021/03/05 11:16:30;;;;;;;4.23;2.70;;;9.20;99.90;;;;;;5053230;28;20237;-75
2021/03/05 11:18:56;;;;;;;5.87;2.87;;;8.40;99.90;;;;;;5053095;28;20727;-75
2021/03/05 11:21:23;;;;;;;5.53;2.90;;;8.00;99.90;;;;;;5053312;28;20667;-75
2021/03/05 11:23:51;;;;;;;4.83;3.03;;;8.20;99.90;;;;;;5053118;28;20211;-75
2021/03/05 11:26:18;;;;;;;5.73;2.93;;;7.90;99.90;;;;;;5053247;28;20197;-75
2021/03/05 11:28:44;;;;;;;7.67;3.07;;;8.00;99.90;;;;;;5053331;28;20232;-75
2021/03/05 11:31:12;;;;;;;5.00;2.70;;;7.80;99.90;;;;;;5053071;28;20235;-75
2021/03/05 11:33:39;;;;;;;5.77;3.17;;;7.50;99.90;;;;;;5053073;28;20256;-75
2021/03/05 11:36:06;;;;;;;5.53;3.10;;;7.50;99.90;;;;;;5053025;28;20212;-75
2021/03/05 11:38:33;;;;;;;6.73;2.80;;;7.60;99.90;;;;;;5052015;28;20271;-75
2021/03/05 11:41:01;;;;;;;10.10;3.87;;;7.50;99.90;;;;;;5052674;28;20291;-74
2021/03/05 11:43:27;;;;;;;6.57;3.10;;;7.50;99.90;;;;;;5053296;28;20212;-75
2021/03/05 11:45:55;;;;;;;6.93;4.50;;;7.60;99.90;;;;;;5052805;28;20246;-75
2021/03/05 11:48:21;;;;;;;8.07;4.40;;;7.40;99.90;;;;;;5052906;28;20231;-75
2021/03/05 11:50:48;;;;;;;5.77;3.60;;;7.40;99.90;;;;;;5053093;28;20234;-75
2021/03/05 11:53:14;;;;;;;5.33;3.33;;;7.30;99.90;;;;;;5044210;28;20296;-75
2021/03/05 11:55:41;;;;;;;4.43;3.10;;;7.40;99.90;;;;;;5032848;28;20790;-75
2021/03/05 11:58:08;;;;;;;6.27;3.53;;;7.60;99.90;;;;;;5032893;28;20266;-75
2021/03/05 12:00:34;;;;;;;6.23;2.90;;;7.90;99.90;;;;;;5032630;28;20261;-75
2021/03/05 12:03:01;;;;;;;5.47;3.13;;;8.30;99.90;;;;;;5031850;28;20247;-75
2021/03/05 12:05:27;;;;;;;5.67;3.13;;;8.40;99.90;;;;;;5032501;28;20237;-75
2021/03/05 12:07:54;;;;;;;6.70;2.70;;;8.00;99.90;;;;;;5032172;28;20273;-75
2021/03/05 12:10:20;;;;;;;5.53;2.70;;;7.70;99.90;;;;;;5032432;28;20295;-75
2021/03/05 12:12:46;;;;;;;6.67;3.47;;;7.60;99.90;;;;;;5032375;28;20293;-75
2021/03/05 12:15:16;;;;;;;4.30;2.77;;;7.80;99.90;;;;;;5032606;28;20715;-75
2021/03/05 12:17:42;;;;;;;3.97;2.50;;;7.70;99.90;;;;;;5032118;28;20263;-75
2021/03/05 12:20:10;;;;;;;4.33;2.53;;;7.50;99.90;;;;;;5032481;28;20293;-75
2021/03/05 12:22:36;;;;;;;4.37;2.80;;;7.80;99.90;;;;;;5032238;28;20201;-74
2021/03/05 12:25:03;;;;;;;5.70;2.60;;;7.90;99.90;;;;;;5032473;28;20233;-75
2021/03/05 12:27:30;;;;;;;3.97;2.70;;;8.10;99.90;;;;;;5015058;28;20241;-76
2021/03/05 12:29:56;;;;;;;7.13;3.20;;;7.70;99.90;;;;;;5014677;28;20239;-75
2021/03/05 12:32:24;;;;;;;4.97;3.07;;;7.80;99.90;;;;;;5032581;28;20234;-75
2021/03/05 12:34:50;;;;;;;4.57;3.20;;;7.90;99.90;;;;;;5032205;28;20242;-75
2021/03/05 12:37:17;;;;;;;4.37;3.50;;;7.80;99.90;;;;;;5031872;28;20246;-75
2021/03/05 12:39:43;;;;;;;5.00;3.47;;;7.70;99.90;;;;;;5032168;28;20276;-75
2021/03/05 12:42:10;;;;;;;3.17;2.83;;;7.90;99.90;;;;;;5032237;28;20255;-75
2021/03/05 12:44:37;;;;;;;4.27;3.00;;;9.20;99.90;;;;;;5032177;28;20234;-75
2021/03/05 12:47:04;;;;;;;5.60;3.10;;;8.60;99.90;;;;;;5032062;28;20203;-75
2021/03/05 12:49:31;;;;;;;4.27;3.33;;;8.30;99.90;;;;;;5032412;28;20231;-75
2021/03/05 12:51:58;;;;;;;5.97;3.60;;;8.90;99.90;;;;;;5038330;28;20250;-75
2021/03/05 12:54:24;;;;;;;3.87;3.00;;;9.30;99.90;;;;;;5056527;28;20238;-75
2021/03/05 12:56:50;;;;;;;4.93;3.50;;;8.80;99.90;;;;;;5058900;28;20238;-75
2021/03/05 12:59:17;;;;;;;4.97;3.50;;;8.70;99.90;;;;;;5058641;28;20637;-75